sensor_id;sensor_type;location;lat;lon;timestamp;pressure;altitude;pressure_sealevel;temperature;humidity
54262;BME280;40174;52.364;6.452;2024-01-10T00:00:32;103027.94;;;-5.20;100.00
54262;BME280;40174;52.364;6.452;2024-01-10T00:02:59;103027.88;;;-5.23;100.00
54262;BME280;40174;52.364;6.452;2024-01-10T00:05:27;103026.19;;;-5.21;100.00
54262;BME280;40174;52.364;6.452;2024-01-10T00:07:53;103032.19;;;-5.22;100.00
54262;BME280;40174;52.364;6.452;2024-01-10T00:10:20;103016.50;;;-5.33;100.00
54262;BME280;40174;52.364;6.452;2024-01-10T00:12:48;103025.09;;;-5.32;100.00
54262;BME280;40174;52.364;6.452;2024-01-10T00:15:14;103019.91;;;-5.35;100.00
54262;BME280;40174;52.364;6.452;2024-01-10T00:17:41;103019.84;;;-5.37;100.00
54262;BME280;40174;52.364;6.452;2024-01-10T00:20:08;103021.59;;;-5.36;100.00
54262;BME280;40174;52.364;6.452;2024-01-10T00:22:36;103021.59;;;-5.36;100.00
54262;BME280;40174;52.364;6.452;2024-01-10T00:25:03;103014.59;;;-5.41;100.00
54262;BME280;40174;52.364;6.452;2024-01-10T00:27:30;103007.72;;;-5.43;100.00
54262;BME280;40174;52.364;6.452;2024-01-10T00:29:56;103013.84;;;-5.36;100.00
54262;BME280;40174;52.364;6.452;2024-01-10T00:32:23;103008.63;;;-5.39;100.00
54262;BME280;40174;52.364;6.452;2024-01-10T00:34:48;103005.16;;;-5.41;100.00
54262;BME280;40174;52.364;6.452;2024-01-10T00:37:15;103004.28;;;-5.41;100.00
54262;BME280;40174;52.364;6.452;2024-01-10T00:39:43;102995.56;;;-5.48;100.00
54262;BME280;40174;52.364;6.452;2024-01-10T00:42:10;102990.47;;;-5.45;100.00
54262;BME280;40174;52.364;6.452;2024-01-10T00:44:36;102995.63;;;-5.45;100.00
54262;BME280;40174;52.364;6.452;2024-01-10T00:47:04;102999.00;;;-5.48;100.00
54262;BME280;40174;52.364;6.452;2024-01-10T00:49:31;102992.81;;;-5.57;100.00
54262;BME280;40174;52.364;6.452;2024-01-10T00:51:57;102999.75;;;-5.53;100.00
54262;BME280;40174;52.364;6.452;2024-01-10T00:54:24;102984.34;;;-5.50;100.00
54262;BME280;40174;52.364;6.452;2024-01-10T00:56:52;102992.09;;;-5.50;100.00
54262;BME280;40174;52.364;6.452;2024-01-10T00:59:18;102979.97;;;-5.54;100.00
54262;BME280;40174;52.364;6.452;2024-01-10T01:01:45;102986.06;;;-5.51;100.00
54262;BME280;40174;52.364;6.452;2024-01-10T01:04:12;102987.75;;;-5.53;100.00
54262;BME280;40174;52.364;6.452;2024-01-10T01:06:38;102979.00;;;-5.59;100.00
54262;BME280;40174;52.364;6.452;2024-01-10T01:09:05;102982.41;;;-5.62;100.00
54262;BME280;40174;52.364;6.452;2024-01-10T01:11:31;102984.97;;;-5.62;100.00
54262;BME280;40174;52.364;6.452;2024-01-10T01:13:59;102990.13;;;-5.62;100.00
54262;BME280;40174;52.364;6.452;2024-01-10T01:16:26;102988.38;;;-5.63;100.00
54262;BME280;40174;52.364;6.452;2024-01-10T01:18:53;102991.84;;;-5.62;100.00
54262;BME280;40174;52.364;6.452;2024-01-10T01:21:19;102989.19;;;-5.66;100.00
54262;BME280;40174;52.364;6.452;2024-01-10T01:23:46;102991.59;;;-5.73;100.00
54262;BME280;40174;52.364;6.452;2024-01-10T01:26:13;102989.84;;;-5.74;100.00
54262;BME280;40174;52.364;6.452;2024-01-10T01:28:39;102992.41;;;-5.76;100.00
54262;BME280;40174;52.364;6.452;2024-01-10T01:31:07;102981.06;;;-5.84;100.00
54262;BME280;40174;52.364;6.452;2024-01-10T01:33:34;102981.00;;;-5.86;100.00
54262;BME280;40174;52.364;6.452;2024-01-10T01:36:01;102988.69;;;-5.89;100.00
54262;BME280;40174;52.364;6.452;2024-01-10T01:38:27;102982.56;;;-5.94;100.00
54262;BME280;40174;52.364;6.452;2024-01-10T01:40:54;102986.75;;;-5.99;100.00
54262;BME280;40174;52.364;6.452;2024-01-10T01:43:22;102978.13;;;-6.01;100.00
54262;BME280;40174;52.364;6.452;2024-01-10T01:45:52;102972.06;;;-6.04;100.00
54262;BME280;40174;52.364;6.452;2024-01-10T01:48:22;102971.09;;;-6.08;100.00
54262;BME280;40174;52.364;6.452;2024-01-10T01:50:51;102981.44;;;-6.07;100.00
54262;BME280;40174;52.364;6.452;2024-01-10T01:53:18;102971.09;;;-6.10;100.00
54262;BME280;40174;52.364;6.452;2024-01-10T01:55:45;102977.16;;;-6.06;100.00
54262;BME280;40174;52.364;6.452;2024-01-10T01:58:12;102961.66;;;-6.09;100.00
54262;BME280;40174;52.364;6.452;2024-01-10T02:00:39;102971.91;;;-6.11;100.00
54262;BME280;40174;52.364;6.452;2024-01-10T02:03:07;102972.81;;;-6.09;100.00
54262;BME280;40174;52.364;6.452;2024-01-10T02:05:36;102965.78;;;-6.16;100.00
54262;BME280;40174;52.364;6.452;2024-01-10T02:08:03;102952.97;;;-6.13;100.00
54262;BME280;40174;52.364;6.452;2024-01-10T02:10:30;102960.44;;;-6.23;100.00
54262;BME280;40174;52.364;6.452;2024-01-10T02:12:56;102953.41;;;-6.31;100.00
54262;BME280;40174;52.364;6.452;2024-01-10T02:15:23;102946.50;;;-6.33;100.00
54262;BME280;40174;52.364;6.452;2024-01-10T02:17:50;102946.66;;;-6.25;100.00
54262;BME280;40174;52.364;6.452;2024-01-10T02:20:17;102943.28;;;-6.24;100.00
54262;BME280;40174;52.364;6.452;2024-01-10T02:22:45;102945.91;;;-6.23;100.00
54262;BME280;40174;52.364;6.452;2024-01-10T02:25:13;102946.81;;;-6.21;100.00
54262;BME280;40174;52.364;6.452;2024-01-10T02:27:41;102941.59;;;-6.22;100.00
54262;BME280;40174;52.364;6.452;2024-01-10T02:30:08;102942.41;;;-6.23;100.00
54262;BME280;40174;52.364;6.452;2024-01-10T02:32:36;102945.91;;;-6.21;100.00
54262;BME280;40174;52.364;6.452;2024-01-10T02:35:03;102939.94;;;-6.20;100.00
54262;BME280;40174;52.364;6.452;2024-01-10T02:37:30;102937.31;;;-6.22;100.00
54262;BME280;40174;52.364;6.452;2024-01-10T02:39:57;102928.72;;;-6.22;100.00
54262;BME280;40174;52.364;6.452;2024-01-10T02:42:26;102928.59;;;-6.29;100.00
54262;BME280;40174;52.364;6.452;2024-01-10T02:44:53;102929.50;;;-6.27;100.00
54262;BME280;40174;52.364;6.452;2024-01-10T02:47:20;102927.81;;;-6.24;100.00
54262;BME280;40174;52.364;6.452;2024-01-10T02:49:46;102927.78;;;-6.26;100.00
54262;BME280;40174;52.364;6.452;2024-01-10T02:52:13;102926.88;;;-6.30;100.00
54262;BME280;40174;52.364;6.452;2024-01-10T02:54:40;102929.50;;;-6.27;100.00
54262;BME280;40174;52.364;6.452;2024-01-10T02:57:07;102926.00;;;-6.29;100.00
54262;BME280;40174;52.364;6.452;2024-01-10T02:59:34;102923.50;;;-6.25;100.00
54262;BME280;40174;52.364;6.452;2024-01-10T03:02:01;102929.56;;;-6.23;100.00
54262;BME280;40174;52.364;6.452;2024-01-10T03:04:28;102917.44;;;-6.29;100.00
54262;BME280;40174;52.364;6.452;2024-01-10T03:06:54;102927.78;;;-6.26;100.00
54262;BME280;40174;52.364;6.452;2024-01-10T03:09:22;102924.41;;;-6.23;100.00
54262;BME280;40174;52.364;6.452;2024-01-10T03:11:48;102922.72;;;-6.23;100.00
54262;BME280;40174;52.364;6.452;2024-01-10T03:14:15;102924.41;;;-6.23;100.00
54262;BME280;40174;52.364;6.452;2024-01-10T03:16:43;102914.19;;;-6.20;100.00
54262;BME280;40174;52.364;6.452;2024-01-10T03:19:11;102913.34;;;-6.19;100.00
54262;BME280;40174;52.364;6.452;2024-01-10T03:21:37;102920.91;;;-6.25;100.00
54262;BME280;40174;52.364;6.452;2024-01-10T03:24:05;102904.81;;;-6.18;100.00
54262;BME280;40174;52.364;6.452;2024-01-10T03:26:32;102906.44;;;-6.22;100.00
54262;BME280;40174;52.364;6.452;2024-01-10T03:28:58;102912.44;;;-6.23;100.00
54262;BME280;40174;52.364;6.452;2024-01-10T03:31:27;102909.00;;;-6.22;100.00
54262;BME280;40174;52.364;6.452;2024-01-10T03:33:55;102900.38;;;-6.24;100.00
54262;BME280;40174;52.364;6.452;2024-01-10T03:36:22;102903.91;;;-6.19;100.00
54262;BME280;40174;52.364;6.452;2024-01-10T03:38:48;102902.22;;;-6.18;100.00
54262;BME280;40174;52.364;6.452;2024-01-10T03:41:16;102897.81;;;-6.24;100.00
54262;BME280;40174;52.364;6.452;2024-01-10T03:43:43;102901.28;;;-6.22;100.00
54262;BME280;40174;52.364;6.452;2024-01-10T03:46:10;102902.13;;;-6.23;100.00
54262;BME280;40174;52.364;6.452;2024-01-10T03:48:37;102902.03;;;-6.26;100.00
54262;BME280;40174;52.364;6.452;2024-01-10T03:51:14;102912.38;;;-6.24;100.00
54262;BME280;40174;52.364;6.452;2024-01-10T03:53:41;102905.56;;;-6.22;100.00
54262;BME280;40174;52.364;6.452;2024-01-10T03:56:07;102908.09;;;-6.24;100.00
54262;BME280;40174;52.364;6.452;2024-01-10T03:58:34;102906.44;;;-6.22;100.00
54262;BME280;40174;52.364;6.452;2024-01-10T04:01:04;102902.09;;;-6.24;100.00
54262;BME280;40174;52.364;6.452;2024-01-10T04:03:31;102894.31;;;-6.28;100.00
54262;BME280;40174;52.364;6.452;2024-01-10T04:05:57;102900.38;;;-6.24;100.00
54262;BME280;40174;52.364;6.452;2024-01-10T04:08:25;102893.59;;;-6.20;100.00
54262;BME280;40174;52.364;6.452;2024-01-10T04:10:52;102891.88;;;-6.20;100.00
54262;BME280;40174;52.364;6.452;2024-01-10T04:13:18;102884.13;;;-6.23;100.00
54262;BME280;40174;52.364;6.452;2024-01-10T04:15:45;102881.56;;;-6.21;100.00
54262;BME280;40174;52.364;6.452;2024-01-10T04:18:11;102892.56;;;-6.29;100.00
54262;BME280;40174;52.364;6.452;2024-01-10T04:20:38;102902.69;;;-6.35;100.00
54262;BME280;40174;52.364;6.452;2024-01-10T04:23:05;102894.31;;;-6.26;100.00
54262;BME280;40174;52.364;6.452;2024-01-10T04:25:33;102890.03;;;-6.25;100.00
54262;BME280;40174;52.364;6.452;2024-01-10T04:27:59;102897.75;;;-6.27;100.00
54262;BME280;40174;52.364;6.452;2024-01-10T04:30:26;102893.56;;;-6.22;100.00
54262;BME280;40174;52.364;6.452;2024-01-10T04:32:53;102889.34;;;-6.18;100.00
54262;BME280;40174;52.364;6.452;2024-01-10T04:35:19;102890.03;;;-6.25;100.00
54262;BME280;40174;52.364;6.452;2024-01-10T04:37:46;102883.25;;;-6.22;100.00
54262;BME280;40174;52.364;6.452;2024-01-10T04:40:13;102883.25;;;-6.22;100.00
54262;BME280;40174;52.364;6.452;2024-01-10T04:42:40;102873.72;;;-6.26;100.00
54262;BME280;40174;52.364;6.452;2024-01-10T04:45:08;102872.75;;;-6.31;100.00
54262;BME280;40174;52.364;6.452;2024-01-10T04:47:34;102882.25;;;-6.29;100.00
54262;BME280;40174;52.364;6.452;2024-01-10T04:50:01;102869.44;;;-6.25;100.00
54262;BME280;40174;52.364;6.452;2024-01-10T04:52:27;102875.44;;;-6.27;100.00
54262;BME280;40174;52.364;6.452;2024-01-10T04:54:54;102875.59;;;-6.20;100.00
54262;BME280;40174;52.364;6.452;2024-01-10T04:57:21;102864.44;;;-6.19;100.00
54262;BME280;40174;52.364;6.452;2024-01-10T04:59:49;102874.78;;;-6.18;100.00
54262;BME280;40174;52.364;6.452;2024-01-10T05:02:14;102879.06;;;-6.18;100.00
54262;BME280;40174;52.364;6.452;2024-01-10T05:04:41;102880.75;;;-6.19;100.00
54262;BME280;40174;52.364;6.452;2024-01-10T05:07:08;102884.16;;;-6.20;100.00
54262;BME280;40174;52.364;6.452;2024-01-10T05:09:34;102873.94;;;-6.17;100.00
54262;BME280;40174;52.364;6.452;2024-01-10T05:12:01;102881.75;;;-6.12;100.00
54262;BME280;40174;52.364;6.452;2024-01-10T05:14:27;102885.03;;;-6.21;100.00
54262;BME280;40174;52.364;6.452;2024-01-10T05:16:55;102879.97;;;-6.16;100.00
54262;BME280;40174;52.364;6.452;2024-01-10T05:19:22;102880.03;;;-6.13;100.00
54262;BME280;40174;52.364;6.452;2024-01-10T05:21:49;102881.69;;;-6.15;100.00
54262;BME280;40174;52.364;6.452;2024-01-10T05:24:15;102886.78;;;-6.18;100.00
54262;BME280;40174;52.364;6.452;2024-01-10T05:26:43;102879.81;;;-6.22;100.00
54262;BME280;40174;52.364;6.452;2024-01-10T05:29:10;102884.22;;;-6.18;100.00
54262;BME280;40174;52.364;6.452;2024-01-10T05:31:37;102883.25;;;-6.22;100.00
54262;BME280;40174;52.364;6.452;2024-01-10T05:34:05;102878.06;;;-6.23;100.00
54262;BME280;40174;52.364;6.452;2024-01-10T05:36:31;102877.25;;;-6.22;100.00
54262;BME280;40174;52.364;6.452;2024-01-10T05:38:59;102884.97;;;-6.22;100.00
54262;BME280;40174;52.364;6.452;2024-01-10T05:41:25;102877.16;;;-6.27;100.00
54262;BME280;40174;52.364;6.452;2024-01-10T05:43:52;102878.91;;;-6.24;100.00
54262;BME280;40174;52.364;6.452;2024-01-10T05:46:19;102877.97;;;-6.30;100.00
54262;BME280;40174;52.364;6.452;2024-01-10T05:48:46;102872.72;;;-6.33;100.00
54262;BME280;40174;52.364;6.452;2024-01-10T05:51:15;102872.63;;;-6.37;100.00
54262;BME280;40174;52.364;6.452;2024-01-10T05:53:42;102867.47;;;-6.39;100.00
54262;BME280;40174;52.364;6.452;2024-01-10T05:56:08;102873.28;;;-6.46;100.00
54262;BME280;40174;52.364;6.452;2024-01-10T05:58:35;102863.72;;;-6.52;100.00
54262;BME280;40174;52.364;6.452;2024-01-10T06:01:02;102861.16;;;-6.52;100.00
54262;BME280;40174;52.364;6.452;2024-01-10T06:03:29;102852.59;;;-6.51;100.00
54262;BME280;40174;52.364;6.452;2024-01-10T06:05:55;102850.81;;;-6.53;100.00
54262;BME280;40174;52.364;6.452;2024-01-10T06:08:23;102843.00;;;-6.58;100.00
54262;BME280;40174;52.364;6.452;2024-01-10T06:10:51;102848.28;;;-6.52;100.00
54262;BME280;40174;52.364;6.452;2024-01-10T06:13:18;102841.28;;;-6.57;100.00
54262;BME280;40174;52.364;6.452;2024-01-10T06:15:44;102847.34;;;-6.57;100.00
54262;BME280;40174;52.364;6.452;2024-01-10T06:18:11;102843.81;;;-6.60;100.00
54262;BME280;40174;52.364;6.452;2024-01-10T06:20:37;102854.16;;;-6.57;100.00
54262;BME280;40174;52.364;6.452;2024-01-10T06:23:04;102855.06;;;-6.55;100.00
54262;BME280;40174;52.364;6.452;2024-01-10T06:25:32;102857.63;;;-6.55;100.00
54262;BME280;40174;52.364;6.452;2024-01-10T06:27:59;102859.34;;;-6.56;100.00
54262;BME280;40174;52.364;6.452;2024-01-10T06:30:25;102849.97;;;-6.54;100.00
54262;BME280;40174;52.364;6.452;2024-01-10T06:32:52;102847.44;;;-6.51;100.00
54262;BME280;40174;52.364;6.452;2024-01-10T06:35:19;102848.19;;;-6.55;100.00
54262;BME280;40174;52.364;6.452;2024-01-10T06:37:45;102846.47;;;-6.56;100.00
54262;BME280;40174;52.364;6.452;2024-01-10T06:40:12;102844.63;;;-6.61;100.00
54262;BME280;40174;52.364;6.452;2024-01-10T06:42:40;102847.34;;;-6.57;100.00
54262;BME280;40174;52.364;6.452;2024-01-10T06:45:07;102848.03;;;-6.62;100.00
54262;BME280;40174;52.364;6.452;2024-01-10T06:47:34;102849.84;;;-6.58;100.00
54262;BME280;40174;52.364;6.452;2024-01-10T06:50:03;102857.69;;;-6.54;100.00
54262;BME280;40174;52.364;6.452;2024-01-10T06:52:30;102843.03;;;-6.56;100.00
54262;BME280;40174;52.364;6.452;2024-01-10T06:54:57;102852.44;;;-6.58;100.00
54262;BME280;40174;52.364;6.452;2024-01-10T06:57:24;102855.88;;;-6.58;100.00
54262;BME280;40174;52.364;6.452;2024-01-10T06:59:52;102859.34;;;-6.56;100.00
54262;BME280;40174;52.364;6.452;2024-01-10T07:02:18;102857.69;;;-6.54;100.00
54262;BME280;40174;52.364;6.452;2024-01-10T07:04:45;102856.78;;;-6.56;100.00
54262;BME280;40174;52.364;6.452;2024-01-10T07:07:13;102864.44;;;-6.57;100.00
54262;BME280;40174;52.364;6.452;2024-01-10T07:09:42;102861.97;;;-6.54;100.00
54262;BME280;40174;52.364;6.452;2024-01-10T07:12:09;102868.06;;;-6.49;100.00
54262;BME280;40174;52.364;6.452;2024-01-10T07:14:35;102862.88;;;-6.51;100.00
54262;BME280;40174;52.364;6.452;2024-01-10T07:17:03;102871.41;;;-6.53;100.00
54262;BME280;40174;52.364;6.452;2024-01-10T07:19:30;102877.41;;;-6.54;100.00
54262;BME280;40174;52.364;6.452;2024-01-10T07:21:56;102868.03;;;-6.52;100.00
54262;BME280;40174;52.364;6.452;2024-01-10T07:24:23;102860.28;;;-6.52;100.00
54262;BME280;40174;52.364;6.452;2024-01-10T07:26:50;102866.34;;;-6.50;100.00
54262;BME280;40174;52.364;6.452;2024-01-10T07:29:16;102867.16;;;-6.51;100.00
54262;BME280;40174;52.364;6.452;2024-01-10T07:31:44;102863.72;;;-6.52;100.00
54262;BME280;40174;52.364;6.452;2024-01-10T07:34:12;102862.94;;;-6.49;100.00
54262;BME280;40174;52.364;6.452;2024-01-10T07:36:43;102878.38;;;-6.49;100.00
54262;BME280;40174;52.364;6.452;2024-01-10T07:39:10;102863.00;;;-6.46;100.00
54262;BME280;40174;52.364;6.452;2024-01-10T07:41:36;102857.81;;;-6.47;100.00
54262;BME280;40174;52.364;6.452;2024-01-10T07:44:03;102867.22;;;-6.48;100.00
54262;BME280;40174;52.364;6.452;2024-01-10T07:46:30;102864.56;;;-6.53;100.00
54262;BME280;40174;52.364;6.452;2024-01-10T07:48:57;102870.66;;;-6.49;100.00
54262;BME280;40174;52.364;6.452;2024-01-10T07:51:27;102872.25;;;-6.53;100.00
54262;BME280;40174;52.364;6.452;2024-01-10T07:53:53;102885.22;;;-6.48;100.00
54262;BME280;40174;52.364;6.452;2024-01-10T07:56:20;102873.28;;;-6.46;100.00
54262;BME280;40174;52.364;6.452;2024-01-10T07:58:46;102879.28;;;-6.47;100.00
54262;BME280;40174;52.364;6.452;2024-01-10T08:01:14;102872.63;;;-6.37;100.00
54262;BME280;40174;52.364;6.452;2024-01-10T08:03:41;102868.22;;;-6.41;100.00
54262;BME280;40174;52.364;6.452;2024-01-10T08:06:07;102878.63;;;-6.37;100.00
54262;BME280;40174;52.364;6.452;2024-01-10T08:08:36;102874.28;;;-6.39;100.00
54262;BME280;40174;52.364;6.452;2024-01-10T08:11:03;102881.25;;;-6.35;100.00
54262;BME280;40174;52.364;6.452;2024-01-10T08:13:30;102885.47;;;-6.39;100.00
54262;BME280;40174;52.364;6.452;2024-01-10T08:15:57;102883.00;;;-6.34;100.00
54262;BME280;40174;52.364;6.452;2024-01-10T08:18:23;102883.03;;;-6.33;100.00
54262;BME280;40174;52.364;6.452;2024-01-10T08:20:50;102876.06;;;-6.37;100.00
54262;BME280;40174;52.364;6.452;2024-01-10T08:23:17;102885.53;;;-6.36;100.00
54262;BME280;40174;52.364;6.452;2024-01-10T08:25:45;102885.53;;;-6.36;100.00
54262;BME280;40174;52.364;6.452;2024-01-10T08:28:11;102882.13;;;-6.35;100.00
54262;BME280;40174;52.364;6.452;2024-01-10T08:30:38;102892.50;;;-6.30;100.00
54262;BME280;40174;52.364;6.452;2024-01-10T08:33:05;102882.16;;;-6.33;100.00
54262;BME280;40174;52.364;6.452;2024-01-10T08:35:32;102881.41;;;-6.29;100.00
54262;BME280;40174;52.364;6.452;2024-01-10T08:37:58;102878.78;;;-6.31;100.00
54262;BME280;40174;52.364;6.452;2024-01-10T08:40:25;102884.00;;;-6.28;100.00
54262;BME280;40174;52.364;6.452;2024-01-10T08:42:53;102871.19;;;-6.24;100.00
54262;BME280;40174;52.364;6.452;2024-01-10T08:45:20;102874.69;;;-6.22;100.00
54262;BME280;40174;52.364;6.452;2024-01-10T08:47:47;102872.16;;;-6.19;100.00
54262;BME280;40174;52.364;6.452;2024-01-10T08:50:13;102865.28;;;-6.20;100.00
54262;BME280;40174;52.364;6.452;2024-01-10T08:52:40;102858.31;;;-6.24;100.00
54262;BME280;40174;52.364;6.452;2024-01-10T08:55:07;102858.28;;;-6.26;100.00
54262;BME280;40174;52.364;6.452;2024-01-10T08:57:34;102869.44;;;-6.25;100.00
54262;BME280;40174;52.364;6.452;2024-01-10T09:00:03;102880.66;;;-6.23;100.00
54262;BME280;40174;52.364;6.452;2024-01-10T09:02:32;102863.56;;;-6.20;100.00
54262;BME280;40174;52.364;6.452;2024-01-10T09:04:58;102874.03;;;-6.12;100.00
54262;BME280;40174;52.364;6.452;2024-01-10T09:07:25;102867.09;;;-6.15;100.00
54262;BME280;40174;52.364;6.452;2024-01-10T09:09:52;102874.09;;;-6.09;100.00
54262;BME280;40174;52.364;6.452;2024-01-10T09:12:19;102872.50;;;-6.04;100.00
54262;BME280;40174;52.364;6.452;2024-01-10T09:14:46;102873.44;;;-5.99;100.00
54262;BME280;40174;52.364;6.452;2024-01-10T09:17:13;102880.41;;;-5.96;100.00
54262;BME280;40174;52.364;6.452;2024-01-10T09:19:40;102866.69;;;-5.94;100.00
54262;BME280;40174;52.364;6.452;2024-01-10T09:22:07;102871.00;;;-5.91;100.00
54262;BME280;40174;52.364;6.452;2024-01-10T09:24:33;102878.84;;;-5.87;100.00
54262;BME280;40174;52.364;6.452;2024-01-10T09:27:00;102880.63;;;-5.82;100.00
54262;BME280;40174;52.364;6.452;2024-01-10T09:29:27;102866.94;;;-5.80;100.00
54262;BME280;40174;52.364;6.452;2024-01-10T09:31:54;102869.66;;;-5.74;100.00
54262;BME280;40174;52.364;6.452;2024-01-10T09:34:23;102864.59;;;-5.69;100.00
54262;BME280;40174;52.364;6.452;2024-01-10T09:36:49;102874.09;;;-5.65;100.00
54262;BME280;40174;52.364;6.452;2024-01-10T09:39:17;102872.34;;;-5.68;100.00
54262;BME280;40174;52.364;6.452;2024-01-10T09:41:46;102872.31;;;-5.69;100.00
54262;BME280;40174;52.364;6.452;2024-01-10T09:44:14;102871.41;;;-5.71;100.00
54262;BME280;40174;52.364;6.452;2024-01-10T09:46:43;102870.69;;;-5.64;100.00
54262;BME280;40174;52.364;6.452;2024-01-10T09:49:12;102873.34;;;-5.59;100.00
54262;BME280;40174;52.364;6.452;2024-01-10T09:51:40;102868.34;;;-5.53;100.00
54262;BME280;40174;52.364;6.452;2024-01-10T09:54:07;102865.81;;;-5.50;100.00
54262;BME280;40174;52.364;6.452;2024-01-10T09:56:33;102866.78;;;-5.44;100.00
54262;BME280;40174;52.364;6.452;2024-01-10T09:59:01;102865.09;;;-5.41;100.00
54262;BME280;40174;52.364;6.452;2024-01-10T10:01:30;102877.13;;;-5.42;100.00
54262;BME280;40174;52.364;6.452;2024-01-10T10:03:58;102869.31;;;-5.45;100.00
54262;BME280;40174;52.364;6.452;2024-01-10T10:06:24;102867.69;;;-5.41;100.00
54262;BME280;40174;52.364;6.452;2024-01-10T10:08:52;102860.06;;;-5.35;100.00
54262;BME280;40174;52.364;6.452;2024-01-10T10:11:19;102856.69;;;-5.33;100.00
54262;BME280;40174;52.364;6.452;2024-01-10T10:13:46;102853.31;;;-5.29;100.00
54262;BME280;40174;52.364;6.452;2024-01-10T10:16:13;102868.81;;;-5.26;100.00
54262;BME280;40174;52.364;6.452;2024-01-10T10:18:40;102863.72;;;-5.24;100.00
54262;BME280;40174;52.364;6.452;2024-01-10T10:21:09;102857.84;;;-5.14;100.00
54262;BME280;40174;52.364;6.452;2024-01-10T10:23:37;102868.34;;;-5.03;100.00
54262;BME280;40174;52.364;6.452;2024-01-10T10:26:13;102859.88;;;-4.96;100.00
54262;BME280;40174;52.364;6.452;2024-01-10T10:28:45;102872.09;;;-4.86;100.00
54262;BME280;40174;52.364;6.452;2024-01-10T10:31:11;102863.56;;;-4.80;100.00
54262;BME280;40174;52.364;6.452;2024-01-10T10:33:38;102861.13;;;-4.71;100.00
54262;BME280;40174;52.364;6.452;2024-01-10T10:36:06;102851.91;;;-4.56;100.00
54262;BME280;40174;52.364;6.452;2024-01-10T10:38:32;102852.78;;;-4.53;100.00
54262;BME280;40174;52.364;6.452;2024-01-10T10:40:59;102851.16;;;-4.46;100.00
54262;BME280;40174;52.364;6.452;2024-01-10T10:43:29;102847.03;;;-4.36;100.00
54262;BME280;40174;52.364;6.452;2024-01-10T10:46:00;102850.50;;;-4.33;100.00
54262;BME280;40174;52.364;6.452;2024-01-10T10:48:32;102846.34;;;-4.22;100.00
54262;BME280;40174;52.364;6.452;2024-01-10T10:51:04;102846.41;;;-4.17;100.00
54262;BME280;40174;52.364;6.452;2024-01-10T10:53:33;102850.81;;;-4.11;100.00
54262;BME280;40174;52.364;6.452;2024-01-10T10:56:00;102849.22;;;-4.00;100.00
54262;BME280;40174;52.364;6.452;2024-01-10T10:58:31;102836.38;;;-3.92;100.00
54262;BME280;40174;52.364;6.452;2024-01-10T11:00:59;102840.81;;;-3.82;100.00
54262;BME280;40174;52.364;6.452;2024-01-10T11:03:28;102843.47;;;-3.76;100.00
54262;BME280;40174;52.364;6.452;2024-01-10T11:05:58;102838.44;;;-3.65;100.00
54262;BME280;40174;52.364;6.452;2024-01-10T11:08:26;102841.13;;;-3.55;100.00
54262;BME280;40174;52.364;6.452;2024-01-10T11:10:54;102845.53;;;-3.47;100.00
54262;BME280;40174;52.364;6.452;2024-01-10T11:13:27;102843.84;;;-3.39;100.00
54262;BME280;40174;52.364;6.452;2024-01-10T11:16:19;102842.28;;;-3.25;100.00
54262;BME280;40174;52.364;6.452;2024-01-10T11:19:07;102844.09;;;-3.16;100.00
54262;BME280;40174;52.364;6.452;2024-01-10T11:21:47;102845.06;;;-3.02;100.00
54262;BME280;40174;52.364;6.452;2024-01-10T11:24:17;102847.72;;;-2.93;100.00
54262;BME280;40174;52.364;6.452;2024-01-10T11:26:44;102839.13;;;-2.90;100.00
54262;BME280;40174;52.364;6.452;2024-01-10T11:29:11;102845.22;;;-2.83;100.00
54262;BME280;40174;52.364;6.452;2024-01-10T11:31:39;102837.47;;;-2.79;100.00
54262;BME280;40174;52.364;6.452;2024-01-10T11:34:06;102835.84;;;-2.69;100.00
54262;BME280;40174;52.364;6.452;2024-01-10T11:36:38;102835.03;;;-2.59;100.00
54262;BME280;40174;52.364;6.452;2024-01-10T11:39:05;102835.09;;;-2.49;100.00
54262;BME280;40174;52.364;6.452;2024-01-10T11:41:34;102830.84;;;-2.38;100.00
54262;BME280;40174;52.364;6.452;2024-01-10T11:44:26;102824.88;;;-2.23;100.00
54262;BME280;40174;52.364;6.452;2024-01-10T11:46:55;102823.19;;;-2.15;100.00
54262;BME280;40174;52.364;6.452;2024-01-10T11:49:23;102824.09;;;-2.02;100.00
54262;BME280;40174;52.364;6.452;2024-01-10T11:51:53;102816.41;;;-1.85;100.00
54262;BME280;40174;52.364;6.452;2024-01-10T11:54:41;102822.47;;;-1.67;100.00
54262;BME280;40174;52.364;6.452;2024-01-10T11:57:13;102843.22;;;-1.67;100.00
54262;BME280;40174;52.364;6.452;2024-01-10T11:59:42;102825.94;;;-1.60;100.00
54262;BME280;40174;52.364;6.452;2024-01-10T12:02:11;102830.31;;;-1.54;100.00
54262;BME280;40174;52.364;6.452;2024-01-10T12:04:39;102827.75;;;-1.39;100.00
54262;BME280;40174;52.364;6.452;2024-01-10T12:07:07;102830.34;;;-1.25;100.00
54262;BME280;40174;52.364;6.452;2024-01-10T12:09:34;102831.19;;;-1.17;100.00
54262;BME280;40174;52.364;6.452;2024-01-10T12:12:00;102824.28;;;-1.09;100.00
54262;BME280;40174;52.364;6.452;2024-01-10T12:14:27;102823.41;;;-0.91;100.00
54262;BME280;40174;52.364;6.452;2024-01-10T12:16:54;102823.41;;;-0.71;100.00
54262;BME280;40174;52.364;6.452;2024-01-10T12:19:23;102829.41;;;-0.52;100.00
54262;BME280;40174;52.364;6.452;2024-01-10T12:21:49;102825.06;;;-0.44;100.00
54262;BME280;40174;52.364;6.452;2024-01-10T12:24:17;102818.16;;;-0.45;100.00
54262;BME280;40174;52.364;6.452;2024-01-10T12:26:44;102821.53;;;-0.16;100.00
54262;BME280;40174;52.364;6.452;2024-01-10T12:29:11;102820.59;;;0.02;100.00
54262;BME280;40174;52.364;6.452;2024-01-10T12:31:38;102814.53;;;-0.01;100.00
54262;BME280;40174;52.364;6.452;2024-01-10T12:34:07;102820.50;;;0.20;100.00
54262;BME280;40174;52.364;6.452;2024-01-10T12:36:36;102821.34;;;0.22;100.00
54262;BME280;40174;52.364;6.452;2024-01-10T12:39:03;102822.16;;;0.35;100.00
54262;BME280;40174;52.364;6.452;2024-01-10T12:41:32;102819.53;;;0.39;100.00